Time;durP1;ratioP1;P1;durP2;ratioP2;P2;SDS_P1;SDS_P2;PMS_P1;PMS_P2;Temp;Humidity;BMP_temperature;BMP_pressure;BME280_temperature;BME280_humidity;BME280_pressure;Samples;Min_cycle;Max_cycle;Signal;HPM_P1;HPM_P2
2021/08/19 00:01:35;;;;;;;8.27;0.70;;;;;;;14.67;100.00;99727.28;4995452;28;20049;-76
2021/08/19 00:04:38;;;;;;;2.20;0.80;;;;;;;14.73;100.00;99721.69;4995635;28;20061;-79
2021/08/19 00:07:41;;;;;;;2.88;0.68;;;;;;;14.72;100.00;99715.34;4995499;28;20066;-78
2021/08/19 00:10:44;;;;;;;0.95;0.30;;;;;;;14.73;100.00;99716.84;4995848;28;20048;-78
2021/08/19 00:13:47;;;;;;;0.95;0.70;;;;;;;14.77;100.00;99725.78;4995253;28;20049;-78
2021/08/19 00:16:50;;;;;;;4.03;0.60;;;;;;;14.76;100.00;99715.06;4995110;28;20060;-79
2021/08/19 00:19:53;;;;;;;2.40;0.85;;;;;;;14.75;100.00;99714.31;4995194;28;20061;-76
2021/08/19 00:22:57;;;;;;;1.00;0.32;;;;;;;14.74;100.00;99707.19;4994878;28;20088;-75
2021/08/19 00:26:00;;;;;;;0.73;0.30;;;;;;;14.76;100.00;99701.81;4994991;28;20053;-76
2021/08/19 00:29:03;;;;;;;4.40;0.50;;;;;;;14.76;100.00;99699.03;4995262;28;20417;-75
2021/08/19 00:32:07;;;;;;;4.95;0.40;;;;;;;14.73;100.00;99697.22;4994976;28;20049;-75
2021/08/19 00:35:10;;;;;;;1.27;0.52;;;;;;;14.70;100.00;99701.06;4994934;28;20056;-75
2021/08/19 00:38:13;;;;;;;2.63;0.65;;;;;;;14.71;100.00;99702.56;4994694;28;20051;-75
2021/08/19 00:41:15;;;;;;;0.45;0.25;;;;;;;14.68;100.00;99703.59;4993985;28;20045;-75
2021/08/19 00:44:18;;;;;;;4.53;0.77;;;;;;;14.63;100.00;99698.75;4994484;28;20108;-75
2021/08/19 00:47:21;;;;;;;0.75;0.22;;;;;;;14.67;100.00;99704.09;4994498;28;20069;-76
2021/08/19 00:50:25;;;;;;;2.42;0.60;;;;;;;14.64;100.00;99700.25;4993815;28;20052;-76
2021/08/19 00:53:27;;;;;;;1.48;0.98;;;;;;;14.54;100.00;99701.78;4994382;28;20389;-75
2021/08/19 00:56:31;;;;;;;2.10;0.73;;;;;;;14.51;100.00;99699.97;4994230;28;20080;-76
2021/08/19 00:59:42;;;;;;;1.55;0.28;;;;;;;14.52;100.00;99698.72;4994514;28;20049;-75
2021/08/19 01:02:46;;;;;;;;;;;;;;;14.57;100.00;99700.00;4993674;28;20708;-76
2021/08/19 01:05:49;;;;;;;7.35;0.40;;;;;;;14.45;100.00;99699.22;4993958;28;19924;-76
2021/08/19 01:08:54;;;;;;;0.88;0.40;;;;;;;14.40;100.00;99700.72;4993622;28;20141;-75
2021/08/19 01:11:57;;;;;;;7.43;0.82;;;;;;;14.41;100.00;99695.91;4993970;28;20057;-75
2021/08/19 01:15:00;;;;;;;1.55;0.82;;;;;;;14.49;100.00;99702.53;4995172;28;20065;-75
2021/08/19 01:18:05;;;;;;;6.65;0.57;;;;;;;14.35;100.00;99701.50;4993089;28;20145;-76
2021/08/19 01:21:14;;;;;;;1.73;0.32;;;;;;;14.31;100.00;99694.59;4993380;28;20100;-76
2021/08/19 01:24:19;;;;;;;1.05;0.32;;;;;;;14.27;100.00;99696.84;4993537;28;20134;-75
2021/08/19 01:27:22;;;;;;;1.55;0.73;;;;;;;14.31;100.00;99697.41;4993989;28;20053;-76
2021/08/19 01:30:26;;;;;;;2.08;0.70;;;;;;;14.26;100.00;99700.91;4993147;28;20053;-76
2021/08/19 01:33:30;;;;;;;0.88;0.40;;;;;;;14.17;100.00;99701.13;4993959;28;20069;-76
2021/08/19 01:36:33;;;;;;;6.45;0.55;;;;;;;14.27;100.00;99696.84;4993705;28;20065;-78
2021/08/19 01:39:36;;;;;;;1.13;0.32;;;;;;;14.30;100.00;99698.66;4993476;28;20072;-79
2021/08/19 01:42:41;;;;;;;0.75;0.38;;;;;;;14.42;100.00;99697.44;4994153;28;20775;-78
2021/08/19 01:45:46;;;;;;;2.90;0.68;;;;;;;14.48;100.00;99698.22;5004262;28;20069;-78
2021/08/19 01:48:50;;;;;;;1.67;0.55;;;;;;;14.39;100.00;99692.84;4993650;28;20101;-78
2021/08/19 01:51:53;;;;;;;5.10;0.40;;;;;;;14.43;100.00;99699.72;4992660;28;20140;-78
2021/08/19 01:54:56;;;;;;;2.28;0.40;;;;;;;14.44;100.00;99694.91;4991962;28;20120;-78
2021/08/19 01:57:59;;;;;;;2.42;0.93;;;;;;;14.36;100.00;99688.22;4993211;28;20049;-79
2021/08/19 02:01:02;;;;;;;0.60;0.25;;;;;;;14.42;100.00;99691.84;4993156;28;20081;-80
2021/08/19 02:04:06;;;;;;;3.88;1.02;;;;;;;14.39;100.00;99681.63;4993253;28;20053;-76
2021/08/19 02:07:08;;;;;;;1.85;0.77;;;;;;;14.40;100.00;99674.75;4993205;28;20077;-76
2021/08/19 02:10:11;;;;;;;1.05;0.60;;;;;;;14.37;100.00;99681.38;4993643;28;20596;-76
2021/08/19 02:13:15;;;;;;;0.85;0.30;;;;;;;14.42;100.00;99675.03;4993315;28;20125;-76
2021/08/19 02:16:18;;;;;;;1.90;0.47;;;;;;;14.21;100.00;99682.03;4993214;28;20470;-76
2021/08/19 02:19:21;;;;;;;2.40;0.77;;;;;;;14.26;100.00;99684.09;4993314;28;20451;-76
2021/08/19 02:22:24;;;;;;;1.92;0.70;;;;;;;14.29;100.00;99686.69;4992944;28;20052;-76
2021/08/19 02:25:28;;;;;;;10.00;1.00;;;;;;;14.29;100.00;99683.88;4993149;28;20104;-76
2021/08/19 02:28:30;;;;;;;1.98;0.82;;;;;;;14.27;100.00;99683.59;4993357;28;20072;-76
2021/08/19 02:31:33;;;;;;;1.90;0.70;;;;;;;14.49;100.00;99674.50;4993253;28;20096;-76
2021/08/19 02:34:36;;;;;;;3.58;0.98;;;;;;;14.49;100.00;99668.91;4993324;28;20104;-76
2021/08/19 02:37:39;;;;;;;0.98;0.88;;;;;;;14.43;100.00;99670.94;4993035;28;20092;-79
2021/08/19 02:40:42;;;;;;;2.67;0.80;;;;;;;14.39;100.00;99678.81;4992989;28;20052;-76
2021/08/19 02:43:45;;;;;;;9.52;1.00;;;;;;;14.35;100.00;99675.50;4993075;28;20054;-76
2021/08/19 02:46:48;;;;;;;2.10;0.43;;;;;;;14.37;100.00;99675.75;4992934;28;20053;-76
2021/08/19 02:49:50;;;;;;;1.10;0.90;;;;;;;14.35;100.00;99669.91;4993083;28;20109;-76
2021/08/19 02:52:53;;;;;;;1.48;0.65;;;;;;;14.29;100.00;99667.06;4993079;28;20101;-76
2021/08/19 02:55:56;;;;;;;1.85;0.77;;;;;;;14.24;100.00;99669.84;4992833;28;20053;-76
2021/08/19 02:58:59;;;;;;;2.47;0.52;;;;;;;14.29;100.00;99671.94;4992786;28;20081;-78
2021/08/19 03:02:02;;;;;;;1.92;1.05;;;;;;;14.39;100.00;99673.22;4993050;28;20053;-78
2021/08/19 03:05:06;;;;;;;0.85;0.55;;;;;;;14.43;100.00;99665.34;5004677;28;20101;-79
2021/08/19 03:08:09;;;;;;;1.20;0.75;;;;;;;14.40;100.00;99657.97;4996438;28;20051;-76
2021/08/19 03:11:12;;;;;;;1.45;0.63;;;;;;;14.40;100.00;99660.75;4996442;28;20080;-76
2021/08/19 03:14:15;;;;;;;3.28;0.80;;;;;;;14.37;100.00;99661.75;4996166;28;20109;-76
2021/08/19 03:17:18;;;;;;;2.97;0.93;;;;;;;14.38;100.00;99657.66;4996564;28;20094;-76
2021/08/19 03:20:22;;;;;;;1.63;0.73;;;;;;;14.38;100.00;99652.06;4996289;28;20182;-76
2021/08/19 03:23:24;;;;;;;0.90;0.68;;;;;;;14.34;100.00;99648.75;4996172;28;20081;-76
2021/08/19 03:26:28;;;;;;;1.77;0.45;;;;;;;14.32;100.00;99648.50;4996316;28;20531;-76
2021/08/19 03:29:32;;;;;;;5.20;0.68;;;;;;;14.35;100.00;99651.06;4996448;28;20064;-76
2021/08/19 03:32:37;;;;;;;4.75;1.00;;;;;;;14.36;100.00;99654.63;4996186;28;20053;-76
2021/08/19 03:35:40;;;;;;;1.85;0.90;;;;;;;14.36;100.00;99652.59;4993447;28;20049;-76
2021/08/19 03:38:43;;;;;;;2.45;0.77;;;;;;;14.32;100.00;99659.69;4995994;28;20468;-78
2021/08/19 03:41:46;;;;;;;2.95;1.17;;;;;;;14.32;100.00;99651.28;4994939;28;20097;-79
2021/08/19 03:44:49;;;;;;;1.30;0.65;;;;;;;14.34;100.00;99654.34;4995659;28;20193;-78
2021/08/19 03:47:52;;;;;;;9.43;1.60;;;;;;;14.25;100.00;99646.91;4995517;28;20038;-79
2021/08/19 03:50:55;;;;;;;3.22;0.85;;;;;;;14.26;100.00;99650.50;4995457;28;20192;-79
2021/08/19 03:53:58;;;;;;;1.23;0.63;;;;;;;14.18;100.00;99643.88;4995596;28;20400;-79
2021/08/19 03:57:02;;;;;;;1.88;0.75;;;;;;;14.15;100.00;99645.63;4995595;28;20057;-79
2021/08/19 04:00:06;;;;;;;2.38;0.65;;;;;;;14.12;100.00;99631.88;4995545;28;20109;-79
2021/08/19 04:03:09;;;;;;;5.50;0.73;;;;;;;14.13;100.00;99631.38;4995646;28;20137;-79
2021/08/19 04:06:12;;;;;;;3.05;1.00;;;;;;;13.93;100.00;99625.19;4995307;28;20049;-78
2021/08/19 04:09:14;;;;;;;0.77;0.30;;;;;;;13.87;100.00;99630.78;4995689;28;20586;-79
2021/08/19 04:12:17;;;;;;;4.47;0.35;;;;;;;13.88;100.00;99631.56;4995445;28;20053;-78
2021/08/19 04:15:20;;;;;;;3.50;0.98;;;;;;;13.84;100.00;99631.03;4995031;28;20105;-78
2021/08/19 04:18:23;;;;;;;2.75;0.57;;;;;;;13.91;100.00;99627.72;4994487;28;20105;-78
2021/08/19 04:21:26;;;;;;;1.55;0.57;;;;;;;13.95;100.00;99626.22;4994925;28;20503;-78
2021/08/19 04:24:29;;;;;;;1.27;0.47;;;;;;;13.92;100.00;99623.66;4994550;28;20112;-78
2021/08/19 04:27:32;;;;;;;1.60;0.47;;;;;;;13.84;100.00;99622.63;5005507;28;20041;-78
2021/08/19 04:30:35;;;;;;;0.50;0.22;;;;;;;13.89;100.00;99617.03;4995145;28;20054;-76
2021/08/19 04:33:38;;;;;;;1.58;0.50;;;;;;;13.87;100.00;99621.59;4995316;28;20054;-76
2021/08/19 04:36:41;;;;;;;1.50;0.45;;;;;;;13.87;100.00;99618.81;4994938;28;20132;-76
2021/08/19 04:39:44;;;;;;;1.95;0.68;;;;;;;13.87;100.00;99621.59;4994723;28;20100;-76
2021/08/19 04:42:46;;;;;;;2.05;0.75;;;;;;;13.91;100.00;99627.72;4994973;28;20049;-76
2021/08/19 04:45:49;;;;;;;5.05;0.82;;;;;;;13.99;100.00;99626.00;4994658;28;20050;-76
2021/08/19 04:48:52;;;;;;;1.33;0.43;;;;;;;14.01;100.00;99623.44;4994305;28;20583;-78
2021/08/19 04:51:55;;;;;;;1.38;0.52;;;;;;;13.93;100.00;99623.16;4994270;28;20061;-78
2021/08/19 04:54:58;;;;;;;3.60;1.17;;;;;;;13.88;100.00;99637.16;4994342;28;20509;-78
2021/08/19 04:58:01;;;;;;;7.93;0.60;;;;;;;13.91;100.00;99634.09;4994823;28;20105;-79
2021/08/19 05:01:04;;;;;;;2.95;0.40;;;;;;;14.03;100.00;99637.72;4995396;28;20048;-79
2021/08/19 05:04:07;;;;;;;1.60;0.47;;;;;;;14.05;100.00;99623.97;4993731;28;20061;-79
2021/08/19 05:07:10;;;;;;;2.42;0.38;;;;;;;13.96;100.00;99624.19;4993631;28;20406;-80
2021/08/19 05:10:13;;;;;;;0.47;0.32;;;;;;;14.10;100.00;99626.00;4990680;28;20100;-79
2021/08/19 05:13:15;;;;;;;5.32;0.50;;;;;;;14.00;100.00;99621.91;4994211;28;20065;-79
2021/08/19 05:16:19;;;;;;;0.60;0.10;;;;;;;13.93;100.00;99620.34;4993968;28;20854;-79
2021/08/19 05:19:22;;;;;;;2.95;0.57;;;;;;;13.91;100.00;99619.31;4994079;28;20084;-76
2021/08/19 05:22:25;;;;;;;0.30;0.17;;;;;;;13.88;100.00;99618.31;4994216;28;20467;-78
2021/08/19 05:25:28;;;;;;;2.83;0.73;;;;;;;14.00;100.00;99613.50;4993837;28;20049;-78
2021/08/19 05:28:31;;;;;;;0.93;0.30;;;;;;;14.07;100.00;99621.44;4993398;28;20054;-79
2021/08/19 05:31:34;;;;;;;1.45;0.30;;;;;;;14.09;100.00;99613.28;4993767;28;20110;-78
2021/08/19 05:34:37;;;;;;;1.65;0.10;;;;;;;14.15;100.00;99614.06;4993604;28;20057;-78
2021/08/19 05:37:40;;;;;;;0.75;0.40;;;;;;;14.09;100.00;99622.47;4994361;28;20085;-76
2021/08/19 05:40:43;;;;;;;1.65;0.30;;;;;;;14.16;100.00;99613.53;4993575;28;20546;-76
2021/08/19 05:43:46;;;;;;;2.10;0.43;;;;;;;14.15;100.00;99614.81;4993430;28;20061;-76
2021/08/19 05:46:49;;;;;;;1.65;0.17;;;;;;;14.12;100.00;99629.81;4993876;28;20056;-76
2021/08/19 05:49:51;;;;;;;1.75;0.40;;;;;;;14.17;100.00;99628.31;4993709;28;20088;-76
2021/08/19 05:52:54;;;;;;;0.20;0.10;;;;;;;14.19;100.00;99622.97;4993938;28;20511;-76
2021/08/19 05:55:57;;;;;;;1.55;0.40;;;;;;;14.17;100.00;99625.50;4993402;28;20112;-76
2021/08/19 05:59:01;;;;;;;1.50;0.65;;;;;;;14.19;100.00;99628.56;4993960;28;20469;-76
2021/08/19 06:02:04;;;;;;;3.00;0.35;;;;;;;14.21;100.00;99631.63;4993392;28;20182;-78
2021/08/19 06:05:07;;;;;;;1.90;0.38;;;;;;;14.29;100.00;99627.13;4993705;28;20090;-78
2021/08/19 06:08:10;;;;;;;1.10;0.40;;;;;;;14.37;100.00;99628.13;4993714;28;20056;-77
2021/08/19 06:11:13;;;;;;;0.98;0.50;;;;;;;14.43;100.00;99626.88;4993446;28;20046;-75
2021/08/19 06:14:15;;;;;;;1.38;0.32;;;;;;;14.50;100.00;99620.00;4993568;28;20452;-75
2021/08/19 06:17:18;;;;;;;1.25;0.30;;;;;;;14.53;100.00;99618.22;4993453;28;20049;-76
2021/08/19 06:20:21;;;;;;;3.33;0.45;;;;;;;14.71;100.00;99626.13;4993382;28;20058;-75
2021/08/19 06:23:24;;;;;;;1.10;0.40;;;;;;;14.81;100.00;99622.53;4993349;28;20093;-77
2021/08/19 06:26:27;;;;;;;7.68;0.82;;;;;;;14.86;100.00;99624.59;4993142;28;20133;-78
2021/08/19 06:29:30;;;;;;;0.73;0.40;;;;;;;14.86;100.00;99624.59;4993742;28;20053;-78
2021/08/19 06:32:33;;;;;;;0.82;0.55;;;;;;;15.01;100.00;99613.09;4993387;28;20556;-75
2021/08/19 06:35:35;;;;;;;1.48;0.50;;;;;;;15.12;100.00;99611.06;4993259;28;20053;-76
2021/08/19 06:38:38;;;;;;;2.75;0.28;;;;;;;15.13;100.00;99601.38;4992562;28;20131;-75
2021/08/19 06:41:41;;;;;;;2.97;0.47;;;;;;;15.39;100.00;99611.50;4996667;28;20093;-75
2021/08/19 06:44:44;;;;;;;2.33;0.30;;;;;;;15.63;100.00;99611.72;4996718;28;20053;-75
2021/08/19 06:47:47;;;;;;;4.43;0.38;;;;;;;15.97;100.00;99596.25;4996979;28;20057;-75
2021/08/19 06:50:50;;;;;;;1.45;0.35;;;;;;;16.08;100.00;99606.66;4996840;28;20054;-75
2021/08/19 06:53:53;;;;;;;2.25;0.65;;;;;;;15.94;100.00;99608.50;4997354;28;20049;-78
2021/08/19 06:56:55;;;;;;;0.52;0.43;;;;;;;15.98;100.00;99614.63;4997190;28;20180;-79
2021/08/19 06:59:58;;;;;;;1.17;0.35;;;;;;;16.02;100.00;99609.50;4997226;28;20416;-78
2021/08/19 07:03:01;;;;;;;6.65;1.15;;;;;;;15.89;100.00;99598.06;4996707;28;20072;-78
2021/08/19 07:06:04;;;;;;;0.47;0.15;;;;;;;15.90;100.00;99613.63;4996754;28;20049;-78
2021/08/19 07:09:07;;;;;;;0.90;0.30;;;;;;;15.84;100.00;99610.09;4996493;28;20053;-78
2021/08/19 07:12:10;;;;;;;1.85;0.52;;;;;;;15.61;100.00;99614.28;4996578;28;20049;-78
2021/08/19 07:15:13;;;;;;;2.10;0.40;;;;;;;15.56;100.00;99609.44;4996640;28;20049;-78
2021/08/19 07:18:16;;;;;;;0.30;0.22;;;;;;;15.48;100.00;99606.41;4996372;28;20133;-78
2021/08/19 07:21:18;;;;;;;2.25;0.45;;;;;;;15.36;100.00;99607.69;4996328;28;20096;-78
2021/08/19 07:24:21;;;;;;;10.13;0.50;;;;;;;15.35;100.00;99608.22;4996126;28;20089;-78
2021/08/19 07:27:24;;;;;;;1.17;0.13;;;;;;;15.37;100.00;99608.44;5006780;28;20134;-78
2021/08/19 07:30:27;;;;;;;3.25;0.90;;;;;;;15.62;100.00;99594.09;4996046;28;20058;-78
2021/08/19 07:33:30;;;;;;;1.27;0.40;;;;;;;15.51;100.00;99596.19;4995374;28;20128;-77
2021/08/19 07:36:33;;;;;;;1.05;0.30;;;;;;;15.40;100.00;99605.38;4996017;28;20519;-78
2021/08/19 07:39:36;;;;;;;2.40;0.70;;;;;;;15.56;100.00;99601.78;4995732;28;20109;-78
2021/08/19 07:42:39;;;;;;;1.08;0.70;;;;;;;15.76;100.00;99606.31;4995477;28;20512;-78
2021/08/19 07:45:43;;;;;;;5.57;0.40;;;;;;;15.89;100.00;99595.28;4995724;28;20052;-78
2021/08/19 07:48:45;;;;;;;3.97;0.40;;;;;;;16.03;100.00;99604.63;4995457;28;20405;-78
2021/08/19 07:51:48;;;;;;;4.82;0.75;;;;;;;16.06;100.00;99601.56;4994757;28;20049;-78
2021/08/19 07:54:51;;;;;;;2.95;0.30;;;;;;;16.09;100.00;99600.50;4995271;28;20096;-78
2021/08/19 07:57:55;;;;;;;8.15;0.50;;;;;;;16.18;100.00;99594.56;4976334;28;20401;-78
2021/08/19 08:00:58;;;;;;;0.30;0.20;;;;;;;16.30;100.00;99601.66;4976364;28;20061;-78
2021/08/19 08:04:01;;;;;;;3.88;0.32;;;;;;;16.42;100.00;99591.88;4976151;28;20053;-77
2021/08/19 08:07:04;;;;;;;0.93;0.68;;;;;;;16.57;100.00;99586.66;4976057;28;20111;-78
2021/08/19 08:10:07;;;;;;;2.45;0.52;;;;;;;16.55;100.00;99585.66;4975879;28;20686;-78
2021/08/19 08:13:12;;;;;;;2.22;0.52;;;;;;;16.49;100.00;99584.91;4975898;28;20134;-75
2021/08/19 08:16:15;;;;;;;2.20;0.43;;;;;;;16.53;100.00;99574.94;4975817;28;20046;-75
2021/08/19 08:19:18;;;;;;;2.40;0.73;;;;;;;16.54;100.00;99579.28;4976086;28;20123;-75
2021/08/19 08:22:21;;;;;;;0.88;0.13;;;;;;;16.72;100.00;99577.09;4975762;28;20405;-76
2021/08/19 08:25:23;;;;;;;0.85;0.38;;;;;;;16.63;100.00;99578.19;4975486;28;20413;-78
2021/08/19 08:28:28;;;;;;;1.85;0.35;;;;;;;16.64;100.00;99586.09;4974847;28;20077;-78
2021/08/19 08:31:31;;;;;;;2.55;0.70;;;;;;;16.91;100.00;99586.38;4975716;28;20097;-78
2021/08/19 08:34:34;;;;;;;0.50;0.28;;;;;;;17.10;100.00;99578.78;4975823;28;20413;-78
2021/08/19 08:37:37;;;;;;;2.25;0.82;;;;;;;17.30;100.00;99581.88;4975540;28;20054;-78
2021/08/19 08:40:42;;;;;;;1.95;0.40;;;;;;;17.48;100.00;99586.03;4975214;28;20058;-78
2021/08/19 08:43:49;;;;;;;1.20;0.85;;;;;;;17.65;100.00;99580.97;4975200;28;20057;-78
2021/08/19 08:46:53;;;;;;;1.90;0.52;;;;;;;17.75;100.00;99587.78;4975776;28;20057;-78
2021/08/19 08:49:56;;;;;;;0.45;0.20;;;;;;;17.88;100.00;99579.41;4975656;28;20053;-79
2021/08/19 08:52:59;;;;;;;5.32;0.77;;;;;;;18.12;100.00;99582.16;4974840;28;20105;-78
2021/08/19 08:56:03;;;;;;;2.28;0.32;;;;;;;18.43;100.00;99588.38;4974126;28;20101;-78
2021/08/19 08:59:06;;;;;;;2.00;0.95;;;;;;;18.48;100.00;99581.88;4975256;28;20054;-78
2021/08/19 09:02:09;;;;;;;0.75;0.20;;;;;;;18.70;100.00;99584.34;4974588;28;20121;-78
2021/08/19 09:05:23;;;;;;;1.73;0.38;;;;;;;18.59;100.00;99581.72;4974890;28;20581;-77
2021/08/19 09:08:26;;;;;;;1.27;0.10;;;;;;;18.67;100.00;99579.78;4975159;28;20050;-78
2021/08/19 09:12:07;;;;;;;3.75;0.32;;;;;;;18.45;100.00;99588.63;4974506;28;20464;-78
2021/08/19 09:15:13;;;;;;;1.05;0.32;;;;;;;18.29;100.00;99592.41;4974543;28;20053;-78
2021/08/19 09:18:34;;;;;;;0.75;0.43;;;;;;;18.17;100.00;99598.22;4975028;28;20050;-78
2021/08/19 09:21:46;;;;;;;3.45;0.50;;;;;;;17.94;100.00;99591.38;4974924;28;20146;-79
2021/08/19 09:24:49;;;;;;;3.72;0.22;;;;;;;17.87;100.00;99591.19;4974973;28;20053;-78
2021/08/19 09:28:19;;;;;;;2.75;0.45;;;;;;;17.81;100.00;99590.50;4974106;28;20054;-81
2021/08/19 09:31:22;;;;;;;4.97;0.57;;;;;;;17.93;100.00;99601.09;4973618;28;20097;-80
2021/08/19 09:34:25;;;;;;;1.45;0.35;;;;;;;18.15;100.00;99602.84;4974071;28;20053;-79
2021/08/19 09:37:28;;;;;;;3.63;0.35;;;;;;;18.07;100.00;99599.91;4973618;28;20053;-79
2021/08/19 09:40:31;;;;;;;3.40;0.38;;;;;;;17.91;100.00;99592.41;4974405;28;20081;-79
2021/08/19 09:43:43;;;;;;;0.47;0.20;;;;;;;17.79;100.00;99590.28;4984727;28;20519;-79
2021/08/19 09:46:46;;;;;;;2.45;0.52;;;;;;;17.63;100.00;99582.81;4974595;28;20110;-78
2021/08/19 09:49:49;;;;;;;1.25;0.50;;;;;;;17.39;100.00;99580.75;4974471;28;20109;-78
2021/08/19 09:52:52;;;;;;;4.18;0.32;;;;;;;17.40;100.00;99576.66;4974627;28;20049;-78
2021/08/19 09:55:55;;;;;;;1.58;0.40;;;;;;;17.44;100.00;99577.88;4973803;28;20508;-79
2021/08/19 09:59:18;;;;;;;2.85;0.60;;;;;;;17.60;100.00;99573.38;4974297;28;20440;-79
2021/08/19 10:02:21;;;;;;;2.05;1.00;;;;;;;18.01;100.00;99573.84;4973993;28;20520;-79
2021/08/19 10:05:25;;;;;;;2.05;0.45;;;;;;;18.22;100.00;99574.06;4974420;28;20047;-79
2021/08/19 10:08:28;;;;;;;2.70;0.77;;;;;;;18.23;100.00;99574.81;4973208;28;20468;-78
2021/08/19 10:11:33;;;;;;;3.58;0.30;;;;;;;18.18;100.00;99570.78;4974205;28;20122;-79
2021/08/19 10:14:36;;;;;;;4.07;0.63;;;;;;;18.21;100.00;99564.09;4975951;28;20568;-78
2021/08/19 10:17:44;;;;;;;3.95;0.30;;;;;;;18.54;100.00;99562.81;4977932;28;20523;-78
2021/08/19 10:21:04;;;;;;;1.52;0.40;;;;;;;18.97;100.00;99554.91;4978058;28;20054;-78
2021/08/19 10:24:08;;;;;;;1.95;0.32;;;;;;;19.26;100.00;99553.84;4977898;28;20121;-78
2021/08/19 10:27:23;;;;;;;1.63;0.13;;;;;;;19.41;100.00;99548.44;4977923;28;20046;-79
2021/08/19 10:30:27;;;;;;;2.28;0.40;;;;;;;19.63;100.00;99553.63;4984143;28;20125;-79
2021/08/19 10:33:36;;;;;;;2.30;0.47;;;;;;;19.46;100.00;99558.88;4990493;28;20048;-78
2021/08/19 10:36:42;;;;;;;1.25;0.40;;;;;;;19.21;100.00;99563.16;4977694;28;20567;-79
2021/08/19 10:39:45;;;;;;;6.07;0.30;;;;;;;18.92;100.00;99558.59;4977880;28;20421;-78
2021/08/19 10:42:55;;;;;;;2.42;0.05;;;;;;;18.74;100.00;99560.19;4977334;28;20519;-78
2021/08/19 10:46:05;;;;;;;1.67;0.28;;;;;;;18.76;100.00;99556.81;4977581;28;20058;-76
2021/08/19 10:49:31;;;;;;;0.60;0.10;;;;;;;18.58;100.00;99563.28;4987960;28;20057;-78
2021/08/19 10:52:34;;;;;;;2.10;0.00;;;;;;;18.40;100.00;99550.72;4977443;28;20134;-78
2021/08/19 10:55:42;;;;;;;0.30;0.20;;;;;;;18.21;100.00;99557.69;4977434;28;20130;-78
2021/08/19 10:58:45;;;;;;;1.70;0.40;;;;;;;18.10;100.00;99564.25;4977411;28;20050;-78
2021/08/19 11:01:51;;;;;;;3.35;0.25;;;;;;;18.12;100.00;99565.25;4977435;28;20093;-78
2021/08/19 11:04:54;;;;;;;3.63;0.45;;;;;;;18.18;100.00;99570.78;4985474;28;20049;-78
2021/08/19 11:07:59;;;;;;;1.25;0.28;;;;;;;18.29;100.00;99564.22;4993596;28;20050;-79
2021/08/19 11:11:02;;;;;;;1.67;0.10;;;;;;;18.13;100.00;99566.75;4995609;28;20048;-78
2021/08/19 11:14:13;;;;;;;1.10;0.25;;;;;;;18.03;100.00;99567.69;4995454;28;20130;-79
2021/08/19 11:17:18;;;;;;;0.43;0.28;;;;;;;18.31;100.00;99570.84;4996433;28;20057;-79
2021/08/19 11:20:29;;;;;;;2.78;0.40;;;;;;;18.19;100.00;99567.44;4995382;28;20109;-79
2021/08/19 11:23:38;;;;;;;;;;;;;;;18.30;100.00;99574.97;4996917;28;20180;-79
2021/08/19 11:26:54;;;;;;;1.85;0.43;;;;;;;18.61;100.00;99576.28;4994357;28;19941;-79
2021/08/19 11:29:57;;;;;;;2.63;0.32;;;;;;;18.89;100.00;99565.31;4995213;28;20053;-79
2021/08/19 11:33:10;;;;;;;3.65;0.65;;;;;;;18.88;100.00;99570.19;4995537;28;20130;-79
2021/08/19 11:36:15;;;;;;;7.20;0.73;;;;;;;18.63;100.00;99570.88;4995414;28;20069;-79
2021/08/19 11:39:25;;;;;;;8.40;0.55;;;;;;;18.70;100.00;99565.38;4996034;28;20057;-78
2021/08/19 11:42:30;;;;;;;1.80;0.55;;;;;;;18.74;100.00;99573.50;4995780;28;20516;-79
2021/08/19 11:45:33;;;;;;;3.17;0.55;;;;;;;18.89;100.00;99565.31;4995680;28;20057;-79
2021/08/19 11:48:57;;;;;;;2.05;0.32;;;;;;;18.95;100.00;99563.13;4996159;28;20057;-78
2021/08/19 11:52:03;;;;;;;2.28;0.60;;;;;;;19.10;100.00;99562.63;4995171;28;20409;-79
2021/08/19 11:55:07;;;;;;;2.15;0.60;;;;;;;19.09;100.00;99561.88;4995673;28;20077;-80
2021/08/19 11:58:24;;;;;;;0.93;0.20;;;;;;;18.87;100.00;99554.56;4994760;28;20384;-78
2021/08/19 12:01:27;;;;;;;2.80;0.60;;;;;;;18.67;100.00;99560.81;4995651;28;20515;-79
2021/08/19 12:04:35;;;;;;;0.45;0.35;;;;;;;18.63;100.00;99554.72;5006181;28;20057;-78
2021/08/19 12:07:41;;;;;;;1.13;0.50;;;;;;;18.24;100.00;99567.88;4995907;28;20195;-79
2021/08/19 12:10:44;;;;;;;1.27;0.63;;;;;;;18.31;100.00;99553.94;4994406;28;20050;-78
2021/08/19 12:13:50;;;;;;;0.30;0.20;;;;;;;18.50;100.00;99556.72;4995621;28;20452;-79
2021/08/19 12:16:55;;;;;;;0.43;0.15;;;;;;;18.58;100.00;99560.47;4995163;28;20049;-79
2021/08/19 12:20:31;;;;;;;0.75;0.28;;;;;;;18.81;100.00;99559.53;5005886;28;20520;-77
2021/08/19 12:23:34;;;;;;;2.47;0.57;;;;;;;18.86;100.00;99555.09;4994555;28;20049;-76
2021/08/19 12:26:38;;;;;;;4.00;0.73;;;;;;;18.79;100.00;99555.75;4995603;28;20610;-78
2021/08/19 12:29:47;;;;;;;1.80;0.73;;;;;;;18.76;100.00;99557.56;4996552;28;20057;-79
2021/08/19 12:32:59;;;;;;;4.25;0.50;;;;;;;18.52;100.00;99554.13;4995242;28;20173;-76
2021/08/19 12:36:11;;;;;;;3.55;1.00;;;;;;;18.45;100.00;99566.06;4993937;28;20088;-75
2021/08/19 12:39:19;;;;;;;1.60;0.38;;;;;;;18.33;100.00;99553.38;4994116;28;20128;-76
2021/08/19 12:42:35;;;;;;;2.28;0.47;;;;;;;18.26;100.00;99548.41;4994407;28;20085;-76
2021/08/19 12:45:39;;;;;;;1.08;0.30;;;;;;;18.42;100.00;99556.59;4994148;28;20061;-76
2021/08/19 12:48:42;;;;;;;5.38;0.80;;;;;;;18.55;100.00;99553.06;4994562;28;20065;-76
2021/08/19 12:51:45;;;;;;;3.20;0.68;;;;;;;18.57;100.00;99551.25;4993808;28;20097;-76
2021/08/19 12:55:08;;;;;;;2.40;0.47;;;;;;;18.36;100.00;99553.09;4994616;28;20049;-76
2021/08/19 12:58:11;;;;;;;0.70;0.43;;;;;;;18.43;100.00;99557.34;5004964;28;20575;-76
2021/08/19 13:01:14;;;;;;;1.20;0.32;;;;;;;18.33;100.00;99559.03;4993884;28;20519;-75
2021/08/19 13:04:17;;;;;;;1.30;0.52;;;;;;;18.40;100.00;99564.06;4993458;28;20508;-74
2021/08/19 13:07:20;;;;;;;1.67;0.80;;;;;;;18.47;100.00;99563.47;4993747;28;20104;-74
2021/08/19 13:10:25;;;;;;;10.45;1.08;;;;;;;18.32;100.00;99561.09;4993486;28;20046;-74
2021/08/19 13:13:28;;;;;;;1.67;0.20;;;;;;;18.26;100.00;99566.06;4993527;28;20108;-75
2021/08/19 13:16:31;;;;;;;1.27;0.30;;;;;;;18.06;100.00;99575.81;4993357;28;20130;-75
2021/08/19 13:19:34;;;;;;;3.17;0.50;;;;;;;18.02;100.00;99574.59;4993779;28;20053;-75
2021/08/19 13:22:37;;;;;;;6.18;1.50;;;;;;;18.00;100.00;99575.13;4993304;28;20053;-74
2021/08/19 13:25:41;;;;;;;2.60;0.85;;;;;;;18.35;100.00;99567.72;4993248;28;20053;-72
2021/08/19 13:28:44;;;;;;;1.27;0.20;;;;;;;18.61;100.00;99557.31;4993519;28;20113;-75
2021/08/19 13:31:47;;;;;;;7.75;0.85;;;;;;;19.12;100.00;99552.31;4993021;28;20104;-75
2021/08/19 13:34:50;;;;;;;2.58;0.90;;;;;;;19.92;100.00;99545.31;4993316;28;20046;-75
2021/08/19 13:37:53;;;;;;;0.82;0.20;;;;;;;20.59;100.00;99547.34;4993200;28;20093;-75
2021/08/19 13:40:56;;;;;;;0.85;0.73;;;;;;;20.80;100.00;99537.53;4993658;28;20385;-75
2021/08/19 13:43:59;;;;;;;0.40;0.30;;;;;;;20.56;100.00;99537.88;4992775;28;20134;-74
2021/08/19 13:47:03;;;;;;;1.85;0.20;;;;;;;20.53;100.00;99535.41;4993108;28;20126;-72
2021/08/19 13:50:07;;;;;;;1.08;0.38;;;;;;;20.69;100.00;99526.50;4992361;28;20049;-74
2021/08/19 13:53:10;;;;;;;0.88;0.32;;;;;;;20.66;100.00;99526.84;4992650;28;20058;-75
2021/08/19 13:56:13;;;;;;;0.30;0.15;;;;;;;20.67;100.00;99523.47;4992237;28;20471;-75
2021/08/19 13:59:18;;;;;;;1.25;0.43;;;;;;;20.51;100.00;99524.63;4992993;28;20048;-75
2021/08/19 14:02:22;;;;;;;1.77;0.30;;;;;;;20.35;100.00;99523.00;4991840;28;20393;-74
2021/08/19 14:05:24;;;;;;;1.58;0.80;;;;;;;20.41;100.00;99520.78;4992707;28;20145;-76
2021/08/19 14:08:28;;;;;;;2.40;0.17;;;;;;;20.68;100.00;99519.31;4992136;28;20724;-76
2021/08/19 14:11:31;;;;;;;1.00;0.40;;;;;;;20.57;100.00;99525.28;4992836;28;20050;-75
2021/08/19 14:14:34;;;;;;;1.02;0.22;;;;;;;20.49;100.00;99515.94;4992755;28;20457;-75
2021/08/19 14:17:37;;;;;;;1.00;0.10;;;;;;;20.32;100.00;99515.59;4992562;28;20142;-75
2021/08/19 14:20:40;;;;;;;1.50;0.20;;;;;;;20.14;100.00;99516.53;4992662;28;20138;-75